Latest Weather Observations for Curtin

IDW60801

Issued at 4:34 am WST Friday 22 January 2021 (issued every 10 minutes, with the page automatically refreshed every 10 minutes)

About weather observations | Map of weather stations | Latest weather observations for WA | Other Formats
Station Details ID: 003080 Name: CURTIN AERO Lat: -17.58 Lon: 123.83 Height: 77.5 m
Data from the previous 72 hours. | See also: Recent months at Curtin
Date/Time
WST
Temp
°C
App
Temp
°C
Dew
Point
°C
Rel
Hum
%
Delta-T
°C
Wind Press
QNH
hPa
Press
MSL
hPa
Rain since
9am
mm
Dir  Spd
km/h
Gust
km/h
Spd
kts
Gust
kts
22/04:30am 25.5 29.0 25.5 100 0.0 NE 17 24 9 13 1003.9 1003.3 13.4
22/04:00am 25.5 29.4 25.5 100 0.0 NE 15 20 8 11 1003.9 1003.3 13.4
22/03:30am 25.5 28.7 25.5 100 0.0 NE 19 26 10 14 1004.1 1003.5 13.4
22/03:00am 25.5 29.4 25.5 100 0.0 NE 15 20 8 11 1004.1 1003.5 13.4
22/02:32am 25.6 29.6 25.6 100 0.0 NE 15 22 8 12 1004.3 1003.7 13.4
22/02:30am 25.6 29.6 25.6 100 0.0 NE 15 22 8 12 1004.3 1003.7 13.4
22/02:07am 25.7 28.8 25.7 100 0.0 NE 20 30 11 16 1004.6 1004.0 11.8
22/02:00am 25.9 29.3 25.9 100 0.0 NE 19 28 10 15 1004.5 1003.9 10.6
22/01:30am 25.8 30.3 25.8 100 0.0 NE 13 20 7 11 1004.7 1004.1 10.4
22/01:00am 25.6 29.6 25.6 100 0.0 NE 15 20 8 11 1004.5 1003.9 10.4
22/12:30am 25.7 30.1 25.7 100 0.0 ENE 13 20 7 11 1004.9 1004.3 10.4
22/12:13am 25.8 31.1 25.8 100 0.0 NE 9 15 5 8 1005.6 1005.0 10.4
22/12:00am 25.8 31.1 25.8 100 0.0 N 9 11 5 6 1006.0 1005.4 10.2
 
Date/Time
WST
Temp
°C
App
Temp
°C
Dew
Point
°C
Rel
Hum
%
Delta-T
°C
Wind Press
QNH
hPa
Press
MSL
hPa
Rain since
9am
mm
Dir  Spd
km/h
Gust
km/h
Spd
kts
Gust
kts
21/11:59pm 25.8 31.1 25.8 100 0.0 N 9 15 5 8 1006.0 1005.4 10.2
21/11:30pm 26.0 30.6 26.0 100 0.0 NE 13 19 7 10 1006.0 1005.4 8.8
21/11:00pm 26.0 30.6 26.0 100 0.0 ENE 13 17 7 9 1006.1 1005.5 8.8
21/10:30pm 26.1 31.2 26.1 100 0.0 NE 11 15 6 8 1006.5 1005.9 8.8
21/10:00pm 26.1 31.6 26.1 100 0.0 NE 9 13 5 7 1006.4 1005.8 8.0
21/09:30pm 26.0 30.6 26.0 100 0.0 E 13 17 7 9 1006.2 1005.6 8.0
21/09:00pm 25.9 31.2 25.9 100 0.0 ENE 9 13 5 7 1006.0 1005.4 8.0
21/08:30pm 25.9 30.5 25.9 100 0.0 ENE 13 19 7 10 1005.6 1005.0 8.0
21/08:00pm 25.9 29.6 25.7 99 0.1 ENE 17 24 9 13 1005.4 1004.8 8.0
21/07:30pm 26.2 31.4 25.7 97 0.4 ENE 9 13 5 7 1005.7 1005.1 7.8
21/07:00pm 26.3 31.6 25.8 97 0.4 ENE 9 13 5 7 1005.2 1004.6 7.8
21/06:30pm 26.3 31.7 26.0 98 0.2 NE 9 19 5 10 1005.1 1004.5 7.8
21/06:00pm 26.4 32.1 26.4 100 0.0 NE 9 15 5 8 1004.3 1003.7 7.8
21/05:56pm 26.4 31.7 26.4 100 0.0 NNE 11 15 6 8 1004.2 1003.6 7.8
21/05:30pm 26.3 31.1 26.3 100 0.0 N 13 20 7 11 1003.9 1003.3 7.8
21/05:21pm 26.2 31.0 26.2 100 0.0 NNE 13 19 7 10 1003.7 1003.1 7.8
21/05:00pm 26.0 30.6 26.0 100 0.0 N 13 19 7 10 1003.6 1003.0 7.6
21/04:30pm 25.7 30.9 25.7 100 0.0 NNE 9 11 5 6 1003.4 1002.8 7.6
21/04:00pm 25.3 29.3 25.0 98 0.2 N 13 17 7 9 1003.9 1003.3 6.4
21/03:33pm 25.1 29.3 24.8 98 0.2 N 11 17 6 9 1004.5 1003.9 5.0
21/03:30pm 25.0 29.1 24.5 97 0.3 N 11 17 6 9 1004.5 1003.9 5.0
21/03:19pm 24.8 27.0 23.9 95 0.6 NNE 19 35 10 19 1004.2 1003.6 4.8
21/03:11pm 24.9 24.7 22.8 88 1.4 N 28 44 15 24 1004.7 1004.1 3.2
21/03:09pm 25.7 26.0 23.0 85 1.8 N 26 44 14 24 1004.6 1004.0 2.2
21/03:00pm 28.8 31.5 24.8 79 2.8 N 19 30 10 16 1004.2 1003.6 1.0
21/02:30pm 32.1 33.7 23.3 59 6.1 NNE 20 28 11 15 1003.9 1003.3 0.8
21/02:00pm 32.2 33.4 23.2 59 6.2 NNE 22 35 12 19 1003.7 1003.1 0.8
21/01:30pm 33.4 34.3 23.4 55 7.0 N 24 35 13 19 1004.3 1003.7 0.8
21/01:00pm 32.2 34.4 24.3 63 5.6 NNE 20 32 11 17 1004.4 1003.8 0.8
21/12:55pm 32.1 35.5 25.2 67 4.9 N 17 32 9 17 1004.3 1003.7 0.8
21/12:41pm 29.8 32.5 26.2 81 2.6 N 24 54 13 29 1004.5 1003.9 0.8
21/12:35pm 30.4 30.4 23.1 65 5.0 NNE 28 54 15 29 1004.6 1004.0 0.2
21/12:30pm 34.7 35.5 23.1 51 8.1 NNE 24 33 13 18 1004.6 1004.0 0.0
21/12:00pm 33.7 34.7 22.8 53 7.5 NNE 22 35 12 19 1004.9 1004.3 0.0
21/11:30am 34.0 35.5 23.1 53 7.6 NNE 20 35 11 19 1005.0 1004.4 0.0
21/11:00am 33.5 35.4 23.8 57 6.8 NNE 20 30 11 16 1005.3 1004.7 0.0
21/10:30am 32.3 34.2 23.5 59 6.1 NNE 19 30 10 16 1005.8 1005.2 0.0
21/10:00am 32.0 33.4 23.5 60 5.9 NE 22 35 12 19 1006.1 1005.5 0.0
21/09:30am 30.9 32.8 23.8 66 4.9 NNE 20 30 11 16 1006.5 1005.9 0.0
21/09:00am 30.3 33.4 24.2 70 4.3 NNE 15 20 8 11 1006.9 1006.3 0.6
21/08:30am 29.3 32.2 24.4 75 3.4 NE 17 28 9 15 1006.7 1006.1 0.6
21/08:00am 28.5 31.2 24.1 77 3.1 ENE 17 26 9 14 1005.9 1005.3 0.6
21/07:30am 27.7 29.8 24.1 81 2.5 E 20 32 11 17 1006.1 1005.5 0.6
21/07:00am 27.3 31.1 24.7 86 1.8 E 13 19 7 10 1006.8 1006.2 0.6
21/06:30am 26.7 31.8 25.5 93 0.8 ESE 9 15 5 8 1007.1 1006.5 0.6
21/06:00am 26.3 31.7 25.4 95 0.6 ESE 7 9 4 5 1007.2 1006.6 0.6
21/05:30am 26.2 33.0 25.5 96 0.5 CALM 0 0 0 0 1007.3 1006.7 0.6
21/05:00am 26.0 32.6 25.3 96 0.5 CALM 0 0 0 0 1007.0 1006.4 0.6
21/04:30am 26.3 31.2 25.3 94 0.7 SE 9 17 5 9 1006.2 1005.6 0.4
21/04:00am 26.1 31.1 25.4 96 0.5 ESE 9 11 5 6 1005.9 1005.3 0.4
21/03:30am 26.1 31.7 25.4 96 0.5 ENE 6 6 3 3 1006.4 1005.8 0.4
21/03:00am 26.2 31.7 25.3 95 0.6 ENE 6 7 3 4 1006.8 1006.2 0.2
21/02:30am 26.2 31.2 24.8 92 1.0 ENE 7 9 4 5 1006.8 1006.2 0.2
21/02:00am 26.6 31.0 24.4 88 1.5 NE 9 13 5 7 1006.7 1006.1 0.0
21/01:30am 26.8 30.7 24.3 86 1.7 ENE 11 15 6 8 1006.5 1005.9 0.0
21/01:00am 26.5 30.8 24.3 88 1.5 ENE 9 15 5 8 1006.3 1005.7 0.0
21/12:30am 27.1 30.1 24.0 83 2.1 ENE 15 20 8 11 1006.2 1005.6 0.0
21/12:00am 27.6 30.7 23.6 79 2.8 ENE 13 17 7 9 1006.5 1005.9 0.0
 
Date/Time
WST
Temp
°C
App
Temp
°C
Dew
Point
°C
Rel
Hum
%
Delta-T
°C
Wind Press
QNH
hPa
Press
MSL
hPa
Rain since
9am
mm
Dir  Spd
km/h
Gust
km/h
Spd
kts
Gust
kts
20/11:30pm 27.8 30.9 23.6 78 2.9 E 13 20 7 11 1006.9 1006.3 0.0
20/11:00pm 27.9 31.8 24.3 81 2.5 ENE 11 17 6 9 1007.4 1006.8 0.0
20/10:30pm 27.8 32.3 24.6 83 2.2 E 9 13 5 7 1007.3 1006.7 0.0
20/10:00pm 28.1 32.2 24.5 81 2.5 E 11 17 6 9 1007.3 1006.7 0.0
20/09:30pm 28.1 31.7 24.3 80 2.6 SE 13 17 7 9 1006.9 1006.3 0.0
20/09:00pm 28.2 31.9 24.6 81 2.5 SE 13 17 7 9 1007.2 1006.6 0.0
20/08:30pm 28.4 33.0 24.8 81 2.5 SE 9 11 5 6 1007.6 1007.0 0.0
20/08:00pm 28.6 34.0 25.4 83 2.3 SSE 7 9 4 5 1007.7 1007.1 0.0
20/07:30pm 28.5 33.6 25.5 84 2.1 S 9 11 5 6 1007.6 1007.0 0.0
20/07:00pm 28.5 33.3 25.7 85 2.0 S 11 13 6 7 1007.4 1006.8 0.0
20/06:30pm 28.3 33.0 25.5 85 2.0 SSE 11 15 6 8 1007.4 1006.8 0.0
20/06:00pm 28.5 32.8 25.5 84 2.1 S 13 17 7 9 1006.9 1006.3 0.0
20/05:30pm 29.1 33.5 24.4 76 3.3 SSW 9 11 5 6 1006.6 1006.0 0.0
20/05:00pm 30.1 34.5 23.8 69 4.4 SW 7 9 4 5 1006.0 1005.4 0.0
20/04:30pm 30.1 32.8 22.8 65 5.0 SSW 13 17 7 9 1005.3 1004.7 0.0
20/04:00pm 31.3 33.9 22.0 57 6.3 S 11 17 6 9 1004.9 1004.3 0.0
20/03:30pm 33.8 34.8 20.2 44 9.1 NE 15 22 8 12 1004.8 1004.2 0.0
20/03:00pm 34.1 35.3 21.5 47 8.6 NNE 17 32 9 17 1004.7 1004.1 0.0
20/02:30pm 34.6 35.2 21.3 46 9.0 N 20 28 11 15 1005.0 1004.4 0.0
20/02:00pm 36.4 38.4 22.9 45 9.4 NNE 17 26 9 14 1005.3 1004.7 0.0
20/01:30pm 34.4 36.7 21.4 46 8.8 NE 11 15 6 8 1005.7 1005.1 0.0
20/01:00pm 33.9 35.6 21.0 47 8.7 N 13 20 7 11 1005.8 1005.2 0.0
20/12:30pm 34.4 36.7 21.4 46 8.8 NNE 11 17 6 9 1005.7 1005.1 0.0
20/12:00pm 35.0 38.2 21.6 45 9.2 ENE 7 15 4 8 1005.9 1005.3 0.0
20/11:30am 34.0 36.0 20.7 45 9.0 NE 11 17 6 9 1006.3 1005.7 0.0
20/11:00am 34.4 37.5 22.1 48 8.5 N 9 20 5 11 1006.5 1005.9 0.0
20/10:30am 33.6 35.8 21.1 48 8.4 NNE 11 20 6 11 1006.9 1006.3 0.0
20/10:00am 33.3 36.0 22.1 52 7.7 N 11 17 6 9 1007.3 1006.7 0.0
20/09:30am 32.9 35.8 23.2 56 6.7 NE 13 20 7 11 1007.7 1007.1 0.0
20/09:00am 32.2 34.9 22.9 58 6.4 NE 13 20 7 11 1008.0 1007.4 0.0
20/08:30am 32.2 34.2 22.3 56 6.8 NE 15 24 8 13 1008.1 1007.5 0.0
20/08:00am 31.8 35.2 24.1 63 5.4 NE 13 17 7 9 1008.0 1007.4 0.0
20/07:30am 31.2 35.4 24.1 66 5.0 NE 9 15 5 8 1007.8 1007.2 0.0
20/07:00am 30.1 36.2 26.5 81 2.6 ENE 7 9 4 5 1007.7 1007.1 0.0
20/06:30am 29.0 35.2 26.6 87 1.7 ENE 7 9 4 5 1007.6 1007.0 0.0
20/06:00am 28.5 35.1 26.9 91 1.2 NE 6 11 3 6 1007.3 1006.7 0.0
20/05:30am 28.2 34.5 26.8 92 1.0 NNW 7 9 4 5 1006.8 1006.2 0.0
20/05:00am 28.1 33.9 26.1 89 1.4 NNE 7 9 4 5 1006.2 1005.6 0.0
20/04:30am 28.3 34.1 25.7 86 1.8 NW 6 7 3 4 1005.9 1005.3 0.0
20/04:00am 28.1 33.3 25.1 84 2.1 N 7 9 4 5 1005.9 1005.3 0.0
20/03:30am 28.5 33.7 25.1 82 2.4 N 7 9 4 5 1005.6 1005.0 0.0
20/03:00am 28.9 34.1 25.1 80 2.7 NNW 7 9 4 5 1005.3 1004.7 0.0
20/02:30am 29.2 34.2 25.4 80 2.7 N 9 11 5 6 1005.2 1004.6 0.0
20/02:00am 29.0 34.0 25.4 81 2.5 NNE 9 13 5 7 1005.2 1004.6 0.0
20/01:30am 29.3 34.4 25.5 80 2.7 N 9 13 5 7 1005.0 1004.4 0.0
20/01:00am 29.6 35.1 25.6 79 2.8 NNE 7 11 4 6 1005.1 1004.5 0.0
20/12:30am 29.7 35.4 25.9 80 2.7 N 7 13 4 7 1005.4 1004.8 0.0
20/12:00am 29.7 35.0 25.9 80 2.7 N 9 13 5 7 1005.7 1005.1 0.0
 
Date/Time
WST
Temp
°C
App
Temp
°C
Dew
Point
°C
Rel
Hum
%
Delta-T
°C
Wind Press
QNH
hPa
Press
MSL
hPa
Rain since
9am
mm
Dir  Spd
km/h
Gust
km/h
Spd
kts
Gust
kts
19/11:30pm 30.0 34.9 25.3 76 3.3 N 9 15 5 8 1006.1 1005.5 0.0
19/11:00pm 29.9 33.7 24.1 71 4.0 N 11 17 6 9 1006.2 1005.6 0.0
19/10:30pm 29.8 32.2 22.3 64 5.1 N 13 19 7 10 1006.2 1005.6 0.0
19/10:00pm 30.6 29.5 14.3 37 9.9 N 13 20 7 11 1005.9 1005.3 0.0
19/09:30pm 30.6 29.9 15.5 40 9.4 SSE 13 15 7 8 1005.4 1004.8 0.0
19/09:00pm 29.8 29.9 16.6 45 8.3 SSE 11 13 6 7 1005.3 1004.7 0.0
19/08:30pm 30.1 30.0 16.1 42 8.7 S 11 13 6 7 1005.1 1004.5 0.0
19/08:00pm 30.7 30.9 16.7 43 8.9 S 11 13 6 7 1005.1 1004.5 0.0
19/07:30pm 31.5 31.2 15.5 38 9.9 S 11 11 6 6 1005.1 1004.5 0.0
19/07:00pm 33.3 32.3 13.4 30 12.1 SE 11 13 6 7 1004.8 1004.2 0.0
19/06:30pm 34.1 33.5 13.5 28 12.5 SE 9 11 5 6 1004.7 1004.1 0.0
19/06:00pm 35.4 34.4 13.5 26 13.4 SE 11 13 6 7 1004.5 1003.9 0.0
19/05:30pm 37.1 34.7 12.5 23 14.9 SSE 17 20 9 11 1004.4 1003.8 0.0
19/05:00pm 38.3 34.9 10.6 19 16.5 SSE 19 26 10 14 1004.2 1003.6 0.0
19/04:30pm 38.8 35.0 11.0 19 16.6 SE 22 32 12 17 1004.0 1003.4 0.0
19/04:00pm 38.8 36.4 12.5 21 16.1 SE 17 24 9 13 1003.8 1003.2 0.0
19/03:30pm 38.1 37.6 15.8 26 14.2 ENE 13 22 7 12 1003.9 1003.3 0.0
19/03:00pm 38.3 36.9 13.5 23 15.4 E 13 19 7 10 1004.0 1003.4 0.0
19/02:30pm 39.1 38.9 14.8 23 15.3 ENE 9 19 5 10 1004.2 1003.6 0.0
19/02:00pm 38.8 38.1 16.4 26 14.5 ENE 15 26 8 14 1004.4 1003.8 0.0
19/01:30pm 38.0 36.5 15.2 26 14.4 ENE 17 24 9 13 1004.7 1004.1 0.0
19/01:00pm 37.7 35.8 14.3 25 14.6 ENE 17 33 9 18 1005.1 1004.5 0.0
19/12:30pm 37.8 37.0 17.2 29 13.4 E 17 24 9 13 1005.3 1004.7 0.0
19/12:00pm 37.7 35.8 16.6 28 13.6 ENE 22 30 12 16 1005.6 1005.0 0.0
19/11:30am 36.9 36.3 17.5 32 12.6 ENE 17 28 9 15 1005.8 1005.2 0.0
19/11:00am 36.4 34.2 17.0 31 12.5 NE 24 33 13 18 1006.1 1005.5 0.0
19/10:30am 36.7 36.2 16.8 30 12.8 NE 15 24 8 13 1006.3 1005.7 0.0
19/10:00am 36.4 36.0 18.0 33 12.1 ENE 17 26 9 14 1006.6 1006.0 0.0
19/09:30am 35.8 37.3 18.8 36 11.2 ENE 9 17 5 9 1006.6 1006.0 0.0
19/09:00am 34.4 36.6 20.4 44 9.4 ENE 9 13 5 7 1006.8 1006.2 0.0
19/08:30am 33.0 36.3 21.8 51 7.6 ENE 7 9 4 5 1007.0 1006.4 0.0
19/08:00am 31.8 35.9 23.3 60 5.9 SE 7 9 4 5 1006.9 1006.3 0.0
19/07:30am 30.5 35.1 24.2 69 4.4 SSE 7 9 4 5 1006.9 1006.3 0.0
19/07:00am 29.6 35.3 25.6 79 2.8 S 6 9 3 5 1007.0 1006.4 0.0
19/06:30am 27.9 35.1 26.1 90 1.3 CALM 0 0 0 0 1006.9 1006.3 0.0
19/06:00am 26.4 33.2 25.5 95 0.6 CALM 0 0 0 0 1006.6 1006.0 0.0
19/05:30am 25.1 31.2 24.4 96 0.5 CALM 0 0 0 0 1006.2 1005.6 0.0
19/05:00am 25.2 30.1 24.3 95 0.6 NNE 6 11 3 6 1005.8 1005.2 0.0

Other formats

Comma delimited format used in spreadsheet applications
http://www.bom.gov.au/fwo/IDW60801/IDW60801.94204.axf

JavaScript Object Notation format (JSON) in row-major order
http://www.bom.gov.au/fwo/IDW60801/IDW60801.94204.json

Data quality

Most of these data are generated automatically and are frequently updated. Quality checks on data are not normally performed. It is possible for incorrect values to appear. Refer to information at About Latest Weather Observations and please check the disclaimer before using these data.